TimeCST,TemperatureF,Dew PointF,Humidity,Sea Level PressureIn,VisibilityMPH,Wind Direction,Wind SpeedMPH,Gust SpeedMPH,PrecipitationIn,Events,Conditions,WindDirDegrees,DateUTC
12:15 AM,-2.2,-7.4,78,30.36,10.0,NNW,5.8,-,N/A,,Scattered Clouds,340,2014-02-10 06:15:00
12:35 AM,-2.2,-7.4,78,30.36,10.0,NNW,6.9,-,N/A,,Mostly Cloudy,340,2014-02-10 06:35:00
12:55 AM,-0.4,-5.6,79,30.36,10.0,North,5.8,-,N/A,,Overcast,350,2014-02-10 06:55:00
1:15 AM,-0.8,-5.8,79,30.35,10.0,North,5.8,-,N/A,,Overcast,360,2014-02-10 07:15:00
1:35 AM,-1.1,-6.3,79,30.36,10.0,North,4.6,-,N/A,,Mostly Cloudy,360,2014-02-10 07:35:00
1:55 AM,-3.1,-8.0,80,30.37,10.0,Calm,Calm,-,N/A,,Scattered Clouds,0,2014-02-10 07:55:00
2:15 AM,-2.7,-7.1,82,30.38,10.0,Calm,Calm,-,N/A,,Mostly Cloudy,0,2014-02-10 08:15:00
2:35 AM,-2.9,-7.4,81,30.37,10.0,Calm,Calm,-,N/A,,Overcast,0,2014-02-10 08:35:00
2:55 AM,-2.6,-7.1,81,30.37,10.0,Calm,Calm,-,N/A,,Overcast,0,2014-02-10 08:55:00
3:15 AM,-3.1,-7.6,81,30.38,10.0,Calm,Calm,-,N/A,,Mostly Cloudy,0,2014-02-10 09:15:00
3:35 AM,-3.5,-7.8,82,30.37,10.0,Calm,Calm,-,N/A,,Scattered Clouds,0,2014-02-10 09:35:00
3:55 AM,-3.3,-7.4,82,30.36,10.0,Calm,Calm,-,N/A,,Clear,0,2014-02-10 09:55:00
4:15 AM,-4.2,-8.5,82,30.36,10.0,Calm,Calm,-,N/A,,Scattered Clouds,0,2014-02-10 10:15:00
4:35 AM,-4.4,-8.7,82,30.36,10.0,Calm,Calm,-,N/A,,Overcast,0,2014-02-10 10:35:00
4:55 AM,-4.9,-9.6,80,30.37,10.0,Calm,Calm,-,N/A,,Mostly Cloudy,0,2014-02-10 10:55:00
5:15 AM,-6.0,-11.2,78,30.37,10.0,Calm,Calm,-,N/A,,Mostly Cloudy,0,2014-02-10 11:15:00
5:35 AM,-4.9,-9.4,81,30.38,10.0,Calm,Calm,-,N/A,,Mostly Cloudy,0,2014-02-10 11:35:00
5:55 AM,-4.9,-9.6,80,30.38,10.0,Calm,Calm,-,N/A,,Clear,0,2014-02-10 11:55:00
6:15 AM,-7.2,-13.0,76,30.38,10.0,Calm,Calm,-,N/A,,Clear,0,2014-02-10 12:15:00
6:35 AM,-9.8,-15.7,75,30.38,10.0,Calm,Calm,-,N/A,,Clear,0,2014-02-10 12:35:00
6:37 AM,-9.4,-16.6,71,30.38,10.0,SW,3.5,-,N/A,,Clear,230,2014-02-10 12:37:00
6:55 AM,-7.6,-13.0,77,30.37,10.0,Calm,Calm,-,N/A,,Scattered Clouds,0,2014-02-10 12:55:00
7:15 AM,-6.7,-12.1,77,30.37,10.0,SW,3.5,-,N/A,,Overcast,220,2014-02-10 13:15:00
7:35 AM,-6.2,-11.7,77,30.37,10.0,Calm,Calm,-,N/A,,Overcast,0,2014-02-10 13:35:00
7:55 AM,-4.0,-9.2,78,30.37,10.0,Calm,Calm,-,N/A,,Overcast,0,2014-02-10 13:55:00
8:15 AM,-1.5,-6.5,79,30.38,10.0,Calm,Calm,-,N/A,,Overcast,0,2014-02-10 14:15:00
8:35 AM,0.9,-4.0,80,30.36,10.0,Calm,Calm,-,N/A,,Overcast,0,2014-02-10 14:35:00
8:55 AM,1.8,-3.3,79,30.37,5.0,Calm,Calm,-,N/A,,Haze,0,2014-02-10 14:55:00
9:15 AM,2.3,-2.9,79,30.37,7.0,Calm,Calm,-,N/A,,Overcast,0,2014-02-10 15:15:00
9:16 AM,1.4,-2.2,85,30.37,7.0,Calm,Calm,-,N/A,,Overcast,0,2014-02-10 15:16:00
9:35 AM,3.7,-1.5,79,30.37,10.0,SSE,3.5,-,N/A,,Overcast,150,2014-02-10 15:35:00
9:55 AM,4.3,-0.8,80,30.36,10.0,SSE,4.6,-,N/A,,Overcast,150,2014-02-10 15:55:00
10:15 AM,5.5,0.1,78,30.36,10.0,SSE,4.6,-,N/A,,Overcast,160,2014-02-10 16:15:00
10:35 AM,7.0,1.6,79,30.36,10.0,SSE,5.8,-,N/A,,Overcast,160,2014-02-10 16:35:00
10:55 AM,8.2,1.9,76,30.36,10.0,South,6.9,-,N/A,,Overcast,170,2014-02-10 16:55:00
11:15 AM,9.0,1.6,72,30.36,10.0,South,4.6,-,N/A,,Overcast,170,2014-02-10 17:15:00
11:35 AM,9.5,1.6,70,30.36,10.0,SSE,6.9,-,N/A,,Overcast,160,2014-02-10 17:35:00
11:55 AM,10.4,1.9,69,30.35,10.0,SSE,5.8,-,N/A,,Overcast,160,2014-02-10 17:55:00
12:15 PM,11.1,2.5,68,30.35,10.0,South,8.1,-,N/A,,Overcast,170,2014-02-10 18:15:00
12:35 PM,11.7,2.8,68,30.34,10.0,South,5.8,-,N/A,,Overcast,180,2014-02-10 18:35:00
12:55 PM,12.4,3.4,67,30.33,10.0,South,6.9,-,N/A,,Overcast,180,2014-02-10 18:55:00
1:15 PM,13.1,3.6,66,30.33,10.0,SSE,4.6,-,N/A,,Overcast,160,2014-02-10 19:15:00
1:35 PM,13.8,3.9,65,30.31,10.0,SSE,8.1,-,N/A,,Overcast,160,2014-02-10 19:35:00
1:55 PM,14.0,4.3,65,30.32,10.0,South,5.8,-,N/A,,Overcast,190,2014-02-10 19:55:00
2:15 PM,14.5,4.6,65,30.32,10.0,South,4.6,-,N/A,,Overcast,180,2014-02-10 20:15:00
2:35 PM,14.7,4.6,64,30.32,10.0,South,4.6,-,N/A,,Overcast,170,2014-02-10 20:35:00
2:55 PM,14.9,4.5,63,30.30,10.0,Calm,Calm,-,N/A,,Overcast,0,2014-02-10 20:55:00
3:15 PM,14.9,4.8,64,30.30,10.0,SE,4.6,-,N/A,,Overcast,140,2014-02-10 21:15:00
3:35 PM,14.9,4.8,64,30.31,10.0,SE,4.6,-,N/A,,Overcast,130,2014-02-10 21:35:00
3:55 PM,14.9,4.3,63,30.31,10.0,SE,5.8,-,N/A,,Overcast,140,2014-02-10 21:55:00
4:15 PM,14.9,4.6,64,30.30,10.0,SE,8.1,-,N/A,,Overcast,140,2014-02-10 22:15:00
4:35 PM,14.9,4.8,64,30.30,10.0,SE,5.8,-,N/A,,Overcast,130,2014-02-10 22:35:00
4:55 PM,14.9,4.6,64,30.31,10.0,SE,8.1,-,N/A,,Overcast,140,2014-02-10 22:55:00
5:15 PM,14.5,4.3,64,30.31,10.0,SSE,6.9,-,N/A,,Overcast,160,2014-02-10 23:15:00
5:35 PM,14.5,4.8,65,30.32,10.0,SSE,8.1,-,N/A,,Overcast,160,2014-02-10 23:35:00
5:55 PM,14.0,4.8,67,30.33,10.0,SSE,8.1,-,N/A,,Overcast,150,2014-02-10 23:55:00
6:15 PM,14.0,5.0,67,30.31,10.0,SSE,8.1,-,N/A,,Overcast,150,2014-02-11 00:15:00
6:35 PM,14.0,5.2,68,30.30,10.0,SE,9.2,-,N/A,,Overcast,140,2014-02-11 00:35:00
6:55 PM,13.6,5.4,70,30.30,7.0,SE,8.1,-,N/A,Snow,Light Snow,140,2014-02-11 00:55:00
7:15 PM,13.6,5.9,71,30.30,10.0,SE,8.1,-,N/A,,Overcast,140,2014-02-11 01:15:00
7:35 PM,13.8,6.4,72,30.33,10.0,SE,4.6,-,N/A,,Overcast,140,2014-02-11 01:35:00
7:55 PM,14.0,6.8,73,30.33,10.0,SSE,5.8,-,N/A,,Overcast,150,2014-02-11 01:55:00
8:15 PM,14.2,6.4,71,30.33,10.0,SSE,6.9,-,N/A,,Overcast,160,2014-02-11 02:15:00
8:18 PM,14.0,6.8,73,30.33,10.0,SSE,8.1,-,N/A,,Overcast,160,2014-02-11 02:18:00
8:35 PM,14.4,6.6,71,30.32,10.0,SSE,8.1,-,N/A,,Overcast,160,2014-02-11 02:35:00
8:55 PM,14.4,6.8,72,30.31,10.0,South,8.1,-,N/A,,Overcast,170,2014-02-11 02:55:00
9:15 PM,14.5,7.2,73,30.32,10.0,South,5.8,-,N/A,,Overcast,190,2014-02-11 03:15:00
9:35 PM,14.7,6.8,71,30.32,10.0,South,8.1,-,N/A,,Overcast,180,2014-02-11 03:35:00
9:55 PM,14.5,7.2,73,30.31,10.0,South,6.9,-,N/A,,Overcast,180,2014-02-11 03:55:00
10:15 PM,14.4,7.3,74,30.31,10.0,South,6.9,-,N/A,,Overcast,180,2014-02-11 04:15:00
10:35 PM,14.2,7.3,74,30.31,10.0,South,9.2,-,N/A,,Overcast,180,2014-02-11 04:35:00
10:55 PM,14.2,6.8,73,30.30,10.0,South,9.2,-,N/A,,Overcast,180,2014-02-11 04:55:00
11:15 PM,14.0,6.8,73,30.30,10.0,South,6.9,-,N/A,,Overcast,180,2014-02-11 05:15:00
11:35 PM,14.0,7.2,74,30.30,10.0,South,6.9,-,N/A,,Overcast,190,2014-02-11 05:35:00
11:55 PM,14.0,7.3,75,30.29,10.0,South,9.2,-,N/A,,Overcast,170,2014-02-11 05:55:00